sensor_id;sensor_type;location;lat;lon;timestamp;temperature;humidity
10213;DHT22;5150;51.400;6.692;2022-11-03T00:00:26;19.50;1.00
10213;DHT22;5150;51.400;6.692;2022-11-03T00:03:49;19.50;1.00
10213;DHT22;5150;51.400;6.692;2022-11-03T00:07:19;19.50;1.00
10213;DHT22;5150;51.400;6.692;2022-11-03T00:10:42;19.50;1.00
10213;DHT22;5150;51.400;6.692;2022-11-03T00:14:06;19.50;1.00
10213;DHT22;5150;51.400;6.692;2022-11-03T00:17:29;19.50;1.00
10213;DHT22;5150;51.400;6.692;2022-11-03T00:21:00;19.50;1.00
10213;DHT22;5150;51.400;6.692;2022-11-03T00:24:24;19.50;1.00
10213;DHT22;5150;51.400;6.692;2022-11-03T00:27:53;19.50;1.00
10213;DHT22;5150;51.400;6.692;2022-11-03T00:31:19;19.50;1.00
10213;DHT22;5150;51.400;6.692;2022-11-03T00:34:42;19.50;1.60
10213;DHT22;5150;51.400;6.692;2022-11-03T00:38:05;19.50;12.10
10213;DHT22;5150;51.400;6.692;2022-11-03T00:41:29;19.50;23.30
10213;DHT22;5150;51.400;6.692;2022-11-03T00:44:52;19.50;20.20
10213;DHT22;5150;51.400;6.692;2022-11-03T00:48:15;19.50;19.60
10213;DHT22;5150;51.400;6.692;2022-11-03T00:51:54;19.50;25.10
10213;DHT22;5150;51.400;6.692;2022-11-03T00:55:17;19.50;35.30
10213;DHT22;5150;51.400;6.692;2022-11-03T00:58:42;19.50;56.70
10213;DHT22;5150;51.400;6.692;2022-11-03T01:02:05;19.50;83.80
10213;DHT22;5150;51.400;6.692;2022-11-03T01:05:28;19.50;75.40
10213;DHT22;5150;51.400;6.692;2022-11-03T01:09:09;19.50;84.60
10213;DHT22;5150;51.400;6.692;2022-11-03T01:12:32;19.50;86.90
10213;DHT22;5150;51.400;6.692;2022-11-03T01:15:57;19.50;91.10
10213;DHT22;5150;51.400;6.692;2022-11-03T01:19:20;19.40;99.90
10213;DHT22;5150;51.400;6.692;2022-11-03T01:22:44;19.40;99.90
10213;DHT22;5150;51.400;6.692;2022-11-03T01:26:09;19.40;99.90
10213;DHT22;5150;51.400;6.692;2022-11-03T01:29:32;19.40;99.90
10213;DHT22;5150;51.400;6.692;2022-11-03T01:32:56;19.40;99.90
10213;DHT22;5150;51.400;6.692;2022-11-03T01:36:19;19.40;99.90
10213;DHT22;5150;51.400;6.692;2022-11-03T01:39:42;19.40;99.90
10213;DHT22;5150;51.400;6.692;2022-11-03T01:43:14;19.40;99.90
10213;DHT22;5150;51.400;6.692;2022-11-03T01:46:40;19.40;99.90
10213;DHT22;5150;51.400;6.692;2022-11-03T01:50:09;19.40;99.90
10213;DHT22;5150;51.400;6.692;2022-11-03T01:53:34;19.40;99.90
10213;DHT22;5150;51.400;6.692;2022-11-03T01:56:59;19.40;99.90
10213;DHT22;5150;51.400;6.692;2022-11-03T02:00:22;19.40;99.90
10213;DHT22;5150;51.400;6.692;2022-11-03T02:03:47;19.40;99.90
10213;DHT22;5150;51.400;6.692;2022-11-03T02:07:17;19.40;99.90
10213;DHT22;5150;51.400;6.692;2022-11-03T02:10:42;19.40;99.90
10213;DHT22;5150;51.400;6.692;2022-11-03T02:14:10;19.40;99.90
10213;DHT22;5150;51.400;6.692;2022-11-03T02:17:35;19.40;99.90
10213;DHT22;5150;51.400;6.692;2022-11-03T02:21:04;19.30;99.90
10213;DHT22;5150;51.400;6.692;2022-11-03T02:24:35;19.40;99.90
10213;DHT22;5150;51.400;6.692;2022-11-03T02:28:05;19.30;99.90
10213;DHT22;5150;51.400;6.692;2022-11-03T02:31:32;19.30;99.90
10213;DHT22;5150;51.400;6.692;2022-11-03T02:35:01;19.30;99.90
10213;DHT22;5150;51.400;6.692;2022-11-03T02:38:27;19.30;99.90
10213;DHT22;5150;51.400;6.692;2022-11-03T02:41:54;19.30;99.90
10213;DHT22;5150;51.400;6.692;2022-11-03T02:45:21;19.30;99.90
10213;DHT22;5150;51.400;6.692;2022-11-03T02:48:46;19.30;99.90
10213;DHT22;5150;51.400;6.692;2022-11-03T02:52:33;19.30;99.90
10213;DHT22;5150;51.400;6.692;2022-11-03T02:56:00;19.30;99.90
10213;DHT22;5150;51.400;6.692;2022-11-03T02:59:26;19.30;99.90
10213;DHT22;5150;51.400;6.692;2022-11-03T03:02:56;19.30;99.90
10213;DHT22;5150;51.400;6.692;2022-11-03T03:06:23;19.30;99.90
10213;DHT22;5150;51.400;6.692;2022-11-03T03:09:55;19.30;99.90
10213;DHT22;5150;51.400;6.692;2022-11-03T03:13:21;19.30;99.90
10213;DHT22;5150;51.400;6.692;2022-11-03T03:16:50;19.30;99.90
10213;DHT22;5150;51.400;6.692;2022-11-03T03:20:20;19.30;99.90
10213;DHT22;5150;51.400;6.692;2022-11-03T03:23:48;19.30;99.90
10213;DHT22;5150;51.400;6.692;2022-11-03T03:27:16;19.30;99.90
10213;DHT22;5150;51.400;6.692;2022-11-03T03:30:42;19.30;99.90
10213;DHT22;5150;51.400;6.692;2022-11-03T03:34:07;19.30;99.90
10213;DHT22;5150;51.400;6.692;2022-11-03T03:37:56;19.30;99.90
10213;DHT22;5150;51.400;6.692;2022-11-03T03:41:21;19.30;99.90
10213;DHT22;5150;51.400;6.692;2022-11-03T03:44:45;19.30;99.90
10213;DHT22;5150;51.400;6.692;2022-11-03T03:48:08;19.30;99.90
10213;DHT22;5150;51.400;6.692;2022-11-03T03:51:32;19.30;99.90
10213;DHT22;5150;51.400;6.692;2022-11-03T03:54:57;19.30;99.90
10213;DHT22;5150;51.400;6.692;2022-11-03T03:58:20;19.30;99.90
10213;DHT22;5150;51.400;6.692;2022-11-03T04:01:43;19.20;99.90
10213;DHT22;5150;51.400;6.692;2022-11-03T04:05:06;19.20;99.90
10213;DHT22;5150;51.400;6.692;2022-11-03T04:08:29;19.20;99.90
10213;DHT22;5150;51.400;6.692;2022-11-03T04:11:53;19.20;99.90
10213;DHT22;5150;51.400;6.692;2022-11-03T04:15:34;19.20;99.90
10213;DHT22;5150;51.400;6.692;2022-11-03T04:19:17;19.20;99.90
10213;DHT22;5150;51.400;6.692;2022-11-03T04:22:57;19.20;99.90
10213;DHT22;5150;51.400;6.692;2022-11-03T04:26:20;19.20;99.90
10213;DHT22;5150;51.400;6.692;2022-11-03T04:29:45;19.20;99.90
10213;DHT22;5150;51.400;6.692;2022-11-03T04:33:11;19.20;99.90
10213;DHT22;5150;51.400;6.692;2022-11-03T04:36:35;19.20;99.90
10213;DHT22;5150;51.400;6.692;2022-11-03T04:39:58;19.20;99.90
10213;DHT22;5150;51.400;6.692;2022-11-03T04:43:29;19.20;99.90
10213;DHT22;5150;51.400;6.692;2022-11-03T04:46:54;19.20;99.90
10213;DHT22;5150;51.400;6.692;2022-11-03T04:50:19;19.20;99.90
10213;DHT22;5150;51.400;6.692;2022-11-03T04:53:47;19.20;99.90
10213;DHT22;5150;51.400;6.692;2022-11-03T04:57:12;19.20;99.90
10213;DHT22;5150;51.400;6.692;2022-11-03T05:00:36;19.20;99.90
10213;DHT22;5150;51.400;6.692;2022-11-03T05:04:00;19.20;99.90
10213;DHT22;5150;51.400;6.692;2022-11-03T05:07:27;19.20;99.90
10213;DHT22;5150;51.400;6.692;2022-11-03T05:10:51;19.20;99.90
10213;DHT22;5150;51.400;6.692;2022-11-03T05:14:17;19.20;99.90
10213;DHT22;5150;51.400;6.692;2022-11-03T05:17:41;19.20;99.90
10213;DHT22;5150;51.400;6.692;2022-11-03T05:21:07;19.20;99.90
10213;DHT22;5150;51.400;6.692;2022-11-03T05:24:31;19.20;99.90
10213;DHT22;5150;51.400;6.692;2022-11-03T05:27:57;19.20;99.90
10213;DHT22;5150;51.400;6.692;2022-11-03T05:31:22;19.20;99.90
10213;DHT22;5150;51.400;6.692;2022-11-03T05:34:46;19.20;99.90
10213;DHT22;5150;51.400;6.692;2022-11-03T05:38:14;19.20;99.90
10213;DHT22;5150;51.400;6.692;2022-11-03T05:41:38;19.20;99.90
10213;DHT22;5150;51.400;6.692;2022-11-03T05:45:03;19.20;99.90
10213;DHT22;5150;51.400;6.692;2022-11-03T05:48:32;19.20;99.90
10213;DHT22;5150;51.400;6.692;2022-11-03T05:51:56;19.30;99.90
10213;DHT22;5150;51.400;6.692;2022-11-03T05:55:30;19.30;99.90
10213;DHT22;5150;51.400;6.692;2022-11-03T05:58:55;19.30;99.90
10213;DHT22;5150;51.400;6.692;2022-11-03T06:02:31;19.30;1.00
10213;DHT22;5150;51.400;6.692;2022-11-03T06:05:56;19.30;1.00
10213;DHT22;5150;51.400;6.692;2022-11-03T06:09:21;19.30;1.00
10213;DHT22;5150;51.400;6.692;2022-11-03T06:12:46;19.30;1.00
10213;DHT22;5150;51.400;6.692;2022-11-03T06:16:30;19.20;1.00
10213;DHT22;5150;51.400;6.692;2022-11-03T06:19:56;19.20;1.00
10213;DHT22;5150;51.400;6.692;2022-11-03T06:23:20;19.20;1.00
10213;DHT22;5150;51.400;6.692;2022-11-03T06:26:43;19.20;1.00
10213;DHT22;5150;51.400;6.692;2022-11-03T06:30:20;19.20;1.00
10213;DHT22;5150;51.400;6.692;2022-11-03T06:33:43;19.20;1.00
10213;DHT22;5150;51.400;6.692;2022-11-03T06:37:15;19.20;1.00
10213;DHT22;5150;51.400;6.692;2022-11-03T06:40:39;19.20;1.00
10213;DHT22;5150;51.400;6.692;2022-11-03T06:44:17;19.20;1.00
10213;DHT22;5150;51.400;6.692;2022-11-03T06:47:43;19.30;1.00
10213;DHT22;5150;51.400;6.692;2022-11-03T06:51:14;19.30;1.00
10213;DHT22;5150;51.400;6.692;2022-11-03T06:54:38;19.40;1.00
10213;DHT22;5150;51.400;6.692;2022-11-03T06:58:06;19.40;1.00
10213;DHT22;5150;51.400;6.692;2022-11-03T07:01:31;19.40;1.00
10213;DHT22;5150;51.400;6.692;2022-11-03T07:04:56;19.40;1.00
10213;DHT22;5150;51.400;6.692;2022-11-03T07:08:21;19.50;99.90
10213;DHT22;5150;51.400;6.692;2022-11-03T07:11:48;19.50;99.90
10213;DHT22;5150;51.400;6.692;2022-11-03T07:15:22;19.50;99.90
10213;DHT22;5150;51.400;6.692;2022-11-03T07:18:45;19.50;99.90
10213;DHT22;5150;51.400;6.692;2022-11-03T07:22:16;19.50;99.90
10213;DHT22;5150;51.400;6.692;2022-11-03T07:25:41;19.50;99.90
10213;DHT22;5150;51.400;6.692;2022-11-03T07:29:06;19.50;99.90
10213;DHT22;5150;51.400;6.692;2022-11-03T07:32:31;19.50;99.90
10213;DHT22;5150;51.400;6.692;2022-11-03T07:35:55;19.50;99.90
10213;DHT22;5150;51.400;6.692;2022-11-03T07:39:38;19.50;99.90
10213;DHT22;5150;51.400;6.692;2022-11-03T07:43:10;19.50;99.90
10213;DHT22;5150;51.400;6.692;2022-11-03T07:46:35;19.50;99.90
10213;DHT22;5150;51.400;6.692;2022-11-03T07:49:58;19.30;91.40
10213;DHT22;5150;51.400;6.692;2022-11-03T07:53:27;19.10;1.00
10213;DHT22;5150;51.400;6.692;2022-11-03T07:56:55;19.00;1.00
10213;DHT22;5150;51.400;6.692;2022-11-03T08:00:18;18.70;1.00
10213;DHT22;5150;51.400;6.692;2022-11-03T08:03:45;18.50;1.00
10213;DHT22;5150;51.400;6.692;2022-11-03T08:07:09;18.30;99.90
10213;DHT22;5150;51.400;6.692;2022-11-03T08:10:32;18.20;99.90
10213;DHT22;5150;51.400;6.692;2022-11-03T08:13:56;18.00;99.90
10213;DHT22;5150;51.400;6.692;2022-11-03T08:17:19;18.00;99.90
10213;DHT22;5150;51.400;6.692;2022-11-03T08:20:42;18.00;99.90
10213;DHT22;5150;51.400;6.692;2022-11-03T08:24:05;17.90;99.90
10213;DHT22;5150;51.400;6.692;2022-11-03T08:27:28;17.80;99.90
10213;DHT22;5150;51.400;6.692;2022-11-03T08:30:52;17.90;99.90
10213;DHT22;5150;51.400;6.692;2022-11-03T08:34:15;17.80;99.90
10213;DHT22;5150;51.400;6.692;2022-11-03T08:37:38;17.80;99.90
10213;DHT22;5150;51.400;6.692;2022-11-03T08:41:02;17.90;99.90
10213;DHT22;5150;51.400;6.692;2022-11-03T08:44:25;17.80;99.90
10213;DHT22;5150;51.400;6.692;2022-11-03T08:47:49;17.80;99.90
10213;DHT22;5150;51.400;6.692;2022-11-03T08:51:13;17.80;99.90
10213;DHT22;5150;51.400;6.692;2022-11-03T08:54:36;17.80;99.90
10213;DHT22;5150;51.400;6.692;2022-11-03T08:57:59;17.80;99.90
10213;DHT22;5150;51.400;6.692;2022-11-03T09:01:22;17.80;99.90
10213;DHT22;5150;51.400;6.692;2022-11-03T09:04:46;17.80;99.90
10213;DHT22;5150;51.400;6.692;2022-11-03T09:08:09;17.80;99.90
10213;DHT22;5150;51.400;6.692;2022-11-03T09:11:52;17.80;99.90
10213;DHT22;5150;51.400;6.692;2022-11-03T09:15:15;17.80;99.90
10213;DHT22;5150;51.400;6.692;2022-11-03T09:18:39;17.80;99.90
10213;DHT22;5150;51.400;6.692;2022-11-03T09:22:03;18.00;99.90
10213;DHT22;5150;51.400;6.692;2022-11-03T09:25:26;18.20;99.90
10213;DHT22;5150;51.400;6.692;2022-11-03T09:28:49;18.50;99.90
10213;DHT22;5150;51.400;6.692;2022-11-03T09:32:12;18.70;99.90
10213;DHT22;5150;51.400;6.692;2022-11-03T09:35:42;18.90;99.90
10213;DHT22;5150;51.400;6.692;2022-11-03T09:39:06;19.00;99.90
10213;DHT22;5150;51.400;6.692;2022-11-03T09:42:30;19.10;99.90
10213;DHT22;5150;51.400;6.692;2022-11-03T09:45:55;19.20;99.90
10213;DHT22;5150;51.400;6.692;2022-11-03T09:49:19;19.30;99.90
10213;DHT22;5150;51.400;6.692;2022-11-03T09:52:43;19.30;99.90
10213;DHT22;5150;51.400;6.692;2022-11-03T09:56:14;19.40;99.90
10213;DHT22;5150;51.400;6.692;2022-11-03T09:59:41;19.40;99.90
10213;DHT22;5150;51.400;6.692;2022-11-03T10:03:05;19.50;99.90
10213;DHT22;5150;51.400;6.692;2022-11-03T10:06:28;19.50;99.90
10213;DHT22;5150;51.400;6.692;2022-11-03T10:09:53;19.50;99.90
10213;DHT22;5150;51.400;6.692;2022-11-03T10:13:22;19.60;99.90
10213;DHT22;5150;51.400;6.692;2022-11-03T10:16:51;19.70;99.90
10213;DHT22;5150;51.400;6.692;2022-11-03T10:20:17;19.70;99.90
10213;DHT22;5150;51.400;6.692;2022-11-03T10:23:40;19.70;99.90
10213;DHT22;5150;51.400;6.692;2022-11-03T10:27:03;19.80;99.90
10213;DHT22;5150;51.400;6.692;2022-11-03T10:30:49;19.80;99.90
10213;DHT22;5150;51.400;6.692;2022-11-03T10:34:34;19.80;99.90
10213;DHT22;5150;51.400;6.692;2022-11-03T10:38:19;19.90;99.90
10213;DHT22;5150;51.400;6.692;2022-11-03T10:41:54;19.90;99.90
10213;DHT22;5150;51.400;6.692;2022-11-03T10:45:19;20.00;99.90
10213;DHT22;5150;51.400;6.692;2022-11-03T10:48:43;20.00;99.90
10213;DHT22;5150;51.400;6.692;2022-11-03T10:52:17;20.00;99.90
10213;DHT22;5150;51.400;6.692;2022-11-03T10:55:40;20.10;99.90
10213;DHT22;5150;51.400;6.692;2022-11-03T10:59:03;20.10;99.90
10213;DHT22;5150;51.400;6.692;2022-11-03T11:02:29;20.20;99.90
10213;DHT22;5150;51.400;6.692;2022-11-03T11:05:54;20.20;99.90
10213;DHT22;5150;51.400;6.692;2022-11-03T11:09:21;20.20;99.90
10213;DHT22;5150;51.400;6.692;2022-11-03T11:13:14;20.30;99.90
10213;DHT22;5150;51.400;6.692;2022-11-03T11:16:50;20.30;99.90
10213;DHT22;5150;51.400;6.692;2022-11-03T11:20:37;20.40;99.90
10213;DHT22;5150;51.400;6.692;2022-11-03T11:24:02;20.40;99.90
10213;DHT22;5150;51.400;6.692;2022-11-03T11:31:29;20.70;99.90
10213;DHT22;5150;51.400;6.692;2022-11-03T11:34:52;20.70;99.90
10213;DHT22;5150;51.400;6.692;2022-11-03T11:42:27;20.60;99.90
10213;DHT22;5150;51.400;6.692;2022-11-03T11:46:36;20.70;99.90
10213;DHT22;5150;51.400;6.692;2022-11-03T11:53:49;20.70;99.90
10213;DHT22;5150;51.400;6.692;2022-11-03T11:57:34;20.60;99.90
10213;DHT22;5150;51.400;6.692;2022-11-03T12:00:59;20.60;99.90
10213;DHT22;5150;51.400;6.692;2022-11-03T12:04:25;20.60;99.90
10213;DHT22;5150;51.400;6.692;2022-11-03T12:07:50;20.60;99.90
10213;DHT22;5150;51.400;6.692;2022-11-03T12:11:12;20.50;99.90
10213;DHT22;5150;51.400;6.692;2022-11-03T12:14:37;20.50;99.90
10213;DHT22;5150;51.400;6.692;2022-11-03T12:18:31;20.40;99.90
10213;DHT22;5150;51.400;6.692;2022-11-03T12:22:00;20.40;99.90
10213;DHT22;5150;51.400;6.692;2022-11-03T12:25:34;20.40;99.90
10213;DHT22;5150;51.400;6.692;2022-11-03T12:29:00;20.40;99.90
10213;DHT22;5150;51.400;6.692;2022-11-03T12:32:25;20.50;99.90
10213;DHT22;5150;51.400;6.692;2022-11-03T12:35:56;20.50;99.90
10213;DHT22;5150;51.400;6.692;2022-11-03T12:39:19;20.70;99.90
10213;DHT22;5150;51.400;6.692;2022-11-03T12:42:42;20.80;99.90
10213;DHT22;5150;51.400;6.692;2022-11-03T12:46:05;20.90;99.90
10213;DHT22;5150;51.400;6.692;2022-11-03T12:49:29;20.90;99.90
10213;DHT22;5150;51.400;6.692;2022-11-03T12:52:52;20.80;99.90
10213;DHT22;5150;51.400;6.692;2022-11-03T12:56:16;20.80;99.90
10213;DHT22;5150;51.400;6.692;2022-11-03T12:59:40;20.70;99.90
10213;DHT22;5150;51.400;6.692;2022-11-03T13:03:03;20.70;99.90
10213;DHT22;5150;51.400;6.692;2022-11-03T13:06:27;20.70;99.90
10213;DHT22;5150;51.400;6.692;2022-11-03T13:09:50;20.70;99.90
10213;DHT22;5150;51.400;6.692;2022-11-03T13:13:13;20.60;99.90
10213;DHT22;5150;51.400;6.692;2022-11-03T13:16:36;20.60;99.90
10213;DHT22;5150;51.400;6.692;2022-11-03T13:19:59;20.60;99.90
10213;DHT22;5150;51.400;6.692;2022-11-03T13:23:24;20.60;99.90
10213;DHT22;5150;51.400;6.692;2022-11-03T13:26:46;20.60;99.90
10213;DHT22;5150;51.400;6.692;2022-11-03T13:30:11;20.60;99.90
10213;DHT22;5150;51.400;6.692;2022-11-03T13:33:34;20.70;99.90
10213;DHT22;5150;51.400;6.692;2022-11-03T13:36:57;20.70;99.90
10213;DHT22;5150;51.400;6.692;2022-11-03T13:40:21;20.70;99.90
10213;DHT22;5150;51.400;6.692;2022-11-03T13:44:04;20.70;99.90
10213;DHT22;5150;51.400;6.692;2022-11-03T13:47:29;20.70;99.90
10213;DHT22;5150;51.400;6.692;2022-11-03T13:51:11;20.70;99.90
10213;DHT22;5150;51.400;6.692;2022-11-03T13:54:38;20.80;99.90
10213;DHT22;5150;51.400;6.692;2022-11-03T13:58:22;20.70;99.90
10213;DHT22;5150;51.400;6.692;2022-11-03T14:02:05;20.70;99.90
10213;DHT22;5150;51.400;6.692;2022-11-03T14:05:48;20.60;99.90
10213;DHT22;5150;51.400;6.692;2022-11-03T14:09:11;20.60;99.90
10213;DHT22;5150;51.400;6.692;2022-11-03T14:12:34;20.60;99.90
10213;DHT22;5150;51.400;6.692;2022-11-03T14:15:58;20.60;99.90
10213;DHT22;5150;51.400;6.692;2022-11-03T14:19:21;20.60;99.90
10213;DHT22;5150;51.400;6.692;2022-11-03T14:22:57;20.60;99.90
10213;DHT22;5150;51.400;6.692;2022-11-03T14:26:20;20.60;99.90
10213;DHT22;5150;51.400;6.692;2022-11-03T14:30:03;20.60;99.90
10213;DHT22;5150;51.400;6.692;2022-11-03T14:33:28;20.50;99.90
10213;DHT22;5150;51.400;6.692;2022-11-03T14:36:51;20.50;99.90
10213;DHT22;5150;51.400;6.692;2022-11-03T14:40:14;20.40;99.90
10213;DHT22;5150;51.400;6.692;2022-11-03T14:43:52;20.40;99.90
10213;DHT22;5150;51.400;6.692;2022-11-03T14:47:16;20.40;99.90
10213;DHT22;5150;51.400;6.692;2022-11-03T14:50:41;20.40;99.90
10213;DHT22;5150;51.400;6.692;2022-11-03T14:54:04;20.40;99.90
10213;DHT22;5150;51.400;6.692;2022-11-03T14:57:27;20.40;99.90
10213;DHT22;5150;51.400;6.692;2022-11-03T15:00:50;20.40;99.90
10213;DHT22;5150;51.400;6.692;2022-11-03T15:04:13;20.40;1.00
10213;DHT22;5150;51.400;6.692;2022-11-03T15:07:37;20.30;1.00
10213;DHT22;5150;51.400;6.692;2022-11-03T15:11:00;20.30;1.00
10213;DHT22;5150;51.400;6.692;2022-11-03T15:14:25;20.30;1.00
10213;DHT22;5150;51.400;6.692;2022-11-03T15:17:48;20.30;1.00
10213;DHT22;5150;51.400;6.692;2022-11-03T15:21:14;20.30;1.00
10213;DHT22;5150;51.400;6.692;2022-11-03T15:24:38;20.30;1.00
10213;DHT22;5150;51.400;6.692;2022-11-03T15:28:21;20.20;1.00
10213;DHT22;5150;51.400;6.692;2022-11-03T15:31:44;20.20;1.00
10213;DHT22;5150;51.400;6.692;2022-11-03T15:35:09;20.20;1.00
10213;DHT22;5150;51.400;6.692;2022-11-03T15:38:32;20.20;1.00
10213;DHT22;5150;51.400;6.692;2022-11-03T15:41:57;20.20;1.00
10213;DHT22;5150;51.400;6.692;2022-11-03T15:45:21;20.20;1.00
10213;DHT22;5150;51.400;6.692;2022-11-03T15:48:44;20.20;1.00
10213;DHT22;5150;51.400;6.692;2022-11-03T15:52:07;20.20;1.00
10213;DHT22;5150;51.400;6.692;2022-11-03T15:55:30;20.10;1.00
10213;DHT22;5150;51.400;6.692;2022-11-03T15:58:55;20.10;1.00
10213;DHT22;5150;51.400;6.692;2022-11-03T16:02:18;20.10;1.00
10213;DHT22;5150;51.400;6.692;2022-11-03T16:06:01;20.10;1.00
10213;DHT22;5150;51.400;6.692;2022-11-03T16:09:24;20.10;1.00
10213;DHT22;5150;51.400;6.692;2022-11-03T16:12:47;20.10;1.00
10213;DHT22;5150;51.400;6.692;2022-11-03T16:16:11;20.10;1.00
10213;DHT22;5150;51.400;6.692;2022-11-03T16:19:34;20.10;1.00
10213;DHT22;5150;51.400;6.692;2022-11-03T16:22:57;20.10;1.00
10213;DHT22;5150;51.400;6.692;2022-11-03T16:26:20;20.10;1.00
10213;DHT22;5150;51.400;6.692;2022-11-03T16:29:44;20.10;1.00
10213;DHT22;5150;51.400;6.692;2022-11-03T16:33:09;20.10;1.00
10213;DHT22;5150;51.400;6.692;2022-11-03T16:36:32;20.00;1.00
10213;DHT22;5150;51.400;6.692;2022-11-03T16:39:55;20.10;1.00
10213;DHT22;5150;51.400;6.692;2022-11-03T16:43:21;20.00;1.00
10213;DHT22;5150;51.400;6.692;2022-11-03T16:46:46;20.00;1.00
10213;DHT22;5150;51.400;6.692;2022-11-03T16:50:11;20.00;1.00
10213;DHT22;5150;51.400;6.692;2022-11-03T16:53:34;20.00;1.00
10213;DHT22;5150;51.400;6.692;2022-11-03T16:56:57;20.00;1.00
10213;DHT22;5150;51.400;6.692;2022-11-03T17:00:20;20.00;1.00
10213;DHT22;5150;51.400;6.692;2022-11-03T17:03:44;20.00;1.00
10213;DHT22;5150;51.400;6.692;2022-11-03T17:07:08;20.00;1.00
10213;DHT22;5150;51.400;6.692;2022-11-03T17:10:31;20.00;1.00
10213;DHT22;5150;51.400;6.692;2022-11-03T17:13:55;19.90;1.00
10213;DHT22;5150;51.400;6.692;2022-11-03T17:17:18;19.90;1.00
10213;DHT22;5150;51.400;6.692;2022-11-03T17:20:41;19.90;1.00
10213;DHT22;5150;51.400;6.692;2022-11-03T17:24:06;19.90;1.00
10213;DHT22;5150;51.400;6.692;2022-11-03T17:27:36;19.90;1.00
10213;DHT22;5150;51.400;6.692;2022-11-03T17:31:00;19.90;1.00
10213;DHT22;5150;51.400;6.692;2022-11-03T17:34:23;19.80;1.00
10213;DHT22;5150;51.400;6.692;2022-11-03T17:37:47;19.80;1.00
10213;DHT22;5150;51.400;6.692;2022-11-03T17:41:12;19.80;1.00
10213;DHT22;5150;51.400;6.692;2022-11-03T17:44:40;19.80;1.00
10213;DHT22;5150;51.400;6.692;2022-11-03T17:48:04;19.80;1.00
10213;DHT22;5150;51.400;6.692;2022-11-03T17:51:28;19.80;1.00
10213;DHT22;5150;51.400;6.692;2022-11-03T17:54:53;19.70;1.00
10213;DHT22;5150;51.400;6.692;2022-11-03T17:58:25;19.70;1.00
10213;DHT22;5150;51.400;6.692;2022-11-03T18:01:49;19.70;1.00
10213;DHT22;5150;51.400;6.692;2022-11-03T18:05:19;19.70;1.00
10213;DHT22;5150;51.400;6.692;2022-11-03T18:08:43;19.70;1.00
10213;DHT22;5150;51.400;6.692;2022-11-03T18:12:08;19.70;1.00
10213;DHT22;5150;51.400;6.692;2022-11-03T18:15:52;19.70;1.00
10213;DHT22;5150;51.400;6.692;2022-11-03T18:19:16;19.70;1.00
10213;DHT22;5150;51.400;6.692;2022-11-03T18:22:39;19.70;1.00
10213;DHT22;5150;51.400;6.692;2022-11-03T18:26:12;19.60;1.00
10213;DHT22;5150;51.400;6.692;2022-11-03T18:29:36;19.70;1.00
10213;DHT22;5150;51.400;6.692;2022-11-03T18:33:00;19.70;1.00
10213;DHT22;5150;51.400;6.692;2022-11-03T18:36:23;19.60;1.00
10213;DHT22;5150;51.400;6.692;2022-11-03T18:39:46;19.60;1.00
10213;DHT22;5150;51.400;6.692;2022-11-03T18:43:13;19.60;1.00
10213;DHT22;5150;51.400;6.692;2022-11-03T18:46:37;19.60;1.00
10213;DHT22;5150;51.400;6.692;2022-11-03T18:50:02;19.50;1.00
10213;DHT22;5150;51.400;6.692;2022-11-03T18:53:25;19.50;1.00
10213;DHT22;5150;51.400;6.692;2022-11-03T18:56:48;19.50;1.00
10213;DHT22;5150;51.400;6.692;2022-11-03T19:00:17;19.50;1.00
10213;DHT22;5150;51.400;6.692;2022-11-03T19:03:40;19.50;1.00
10213;DHT22;5150;51.400;6.692;2022-11-03T19:07:05;19.50;1.00
10213;DHT22;5150;51.400;6.692;2022-11-03T19:10:29;19.50;1.00
10213;DHT22;5150;51.400;6.692;2022-11-03T19:13:52;19.50;1.00
10213;DHT22;5150;51.400;6.692;2022-11-03T19:17:17;19.50;1.00
10213;DHT22;5150;51.400;6.692;2022-11-03T19:20:44;19.50;1.00
10213;DHT22;5150;51.400;6.692;2022-11-03T19:24:08;19.50;1.00
10213;DHT22;5150;51.400;6.692;2022-11-03T19:27:34;19.50;1.00
10213;DHT22;5150;51.400;6.692;2022-11-03T19:30:57;19.50;1.00
10213;DHT22;5150;51.400;6.692;2022-11-03T19:34:23;19.50;1.00
10213;DHT22;5150;51.400;6.692;2022-11-03T19:37:53;19.50;1.00
10213;DHT22;5150;51.400;6.692;2022-11-03T19:41:23;19.50;1.00
10213;DHT22;5150;51.400;6.692;2022-11-03T19:45:05;19.40;1.00
10213;DHT22;5150;51.400;6.692;2022-11-03T19:48:31;19.40;1.00
10213;DHT22;5150;51.400;6.692;2022-11-03T19:51:55;19.40;1.00
10213;DHT22;5150;51.400;6.692;2022-11-03T19:55:18;19.40;1.00
10213;DHT22;5150;51.400;6.692;2022-11-03T19:58:43;19.40;1.00
10213;DHT22;5150;51.400;6.692;2022-11-03T20:02:06;19.40;1.00
10213;DHT22;5150;51.400;6.692;2022-11-03T20:05:29;19.40;1.00
10213;DHT22;5150;51.400;6.692;2022-11-03T20:08:52;19.40;1.00
10213;DHT22;5150;51.400;6.692;2022-11-03T20:12:17;19.40;1.00
10213;DHT22;5150;51.400;6.692;2022-11-03T20:15:42;19.40;1.00
10213;DHT22;5150;51.400;6.692;2022-11-03T20:19:05;19.30;1.00
10213;DHT22;5150;51.400;6.692;2022-11-03T20:22:28;19.30;1.00
10213;DHT22;5150;51.400;6.692;2022-11-03T20:25:52;19.30;1.00
10213;DHT22;5150;51.400;6.692;2022-11-03T20:29:15;19.30;1.00
10213;DHT22;5150;51.400;6.692;2022-11-03T20:32:39;19.30;1.00
10213;DHT22;5150;51.400;6.692;2022-11-03T20:36:03;19.30;1.00
10213;DHT22;5150;51.400;6.692;2022-11-03T20:39:26;19.30;1.00
10213;DHT22;5150;51.400;6.692;2022-11-03T20:42:52;19.30;1.00
10213;DHT22;5150;51.400;6.692;2022-11-03T20:46:20;19.30;1.00
10213;DHT22;5150;51.400;6.692;2022-11-03T20:49:45;19.30;1.00
10213;DHT22;5150;51.400;6.692;2022-11-03T20:53:13;19.30;1.00
10213;DHT22;5150;51.400;6.692;2022-11-03T20:56:36;19.30;1.00
10213;DHT22;5150;51.400;6.692;2022-11-03T20:59:59;19.30;1.00
10213;DHT22;5150;51.400;6.692;2022-11-03T21:03:25;19.30;1.00
10213;DHT22;5150;51.400;6.692;2022-11-03T21:07:11;19.30;1.00
10213;DHT22;5150;51.400;6.692;2022-11-03T21:10:34;19.30;1.00
10213;DHT22;5150;51.400;6.692;2022-11-03T21:13:58;19.30;1.00
10213;DHT22;5150;51.400;6.692;2022-11-03T21:17:21;19.30;1.00
10213;DHT22;5150;51.400;6.692;2022-11-03T21:21:02;19.30;1.00
10213;DHT22;5150;51.400;6.692;2022-11-03T21:24:34;19.30;1.00
10213;DHT22;5150;51.400;6.692;2022-11-03T21:27:56;19.30;1.00
10213;DHT22;5150;51.400;6.692;2022-11-03T21:31:20;19.20;1.00
10213;DHT22;5150;51.400;6.692;2022-11-03T21:34:43;19.20;1.00
10213;DHT22;5150;51.400;6.692;2022-11-03T21:38:06;19.20;1.00
10213;DHT22;5150;51.400;6.692;2022-11-03T21:41:31;19.30;1.00
10213;DHT22;5150;51.400;6.692;2022-11-03T21:45:11;19.30;1.00
10213;DHT22;5150;51.400;6.692;2022-11-03T21:48:35;19.30;1.00
10213;DHT22;5150;51.400;6.692;2022-11-03T21:52:17;19.30;1.00
10213;DHT22;5150;51.400;6.692;2022-11-03T21:55:52;19.30;1.00
10213;DHT22;5150;51.400;6.692;2022-11-03T21:59:16;19.30;1.00
10213;DHT22;5150;51.400;6.692;2022-11-03T22:02:39;19.30;1.00
10213;DHT22;5150;51.400;6.692;2022-11-03T22:06:04;19.20;1.00
10213;DHT22;5150;51.400;6.692;2022-11-03T22:09:27;19.30;1.00
10213;DHT22;5150;51.400;6.692;2022-11-03T22:12:50;19.30;1.00
10213;DHT22;5150;51.400;6.692;2022-11-03T22:16:15;19.20;1.00
10213;DHT22;5150;51.400;6.692;2022-11-03T22:19:55;19.20;1.00
10213;DHT22;5150;51.400;6.692;2022-11-03T22:23:36;19.20;1.00
10213;DHT22;5150;51.400;6.692;2022-11-03T22:27:16;19.20;1.00